TimeEST,TemperatureF,Dew PointF,Humidity,Sea Level PressureIn,VisibilityMPH,Wind Direction,Wind SpeedMPH,Gust SpeedMPH,PrecipitationIn,Events,Conditions,WindDirDegrees,DateUTC
12:53 AM,73.9,66.0,76,30.24,10.0,ESE,9.2,-,N/A,,Mostly Cloudy,120,2013-01-29 05:53:00
1:53 AM,73.9,64.9,73,30.22,10.0,ESE,11.5,-,N/A,,Partly Cloudy,120,2013-01-29 06:53:00
2:53 AM,73.0,66.0,79,30.21,10.0,ESE,8.1,-,N/A,,Clear,120,2013-01-29 07:53:00
3:53 AM,73.0,66.0,79,30.20,10.0,ESE,12.7,-,N/A,,Clear,120,2013-01-29 08:53:00
4:53 AM,73.0,64.9,76,30.20,10.0,SE,11.5,-,N/A,,Scattered Clouds,130,2013-01-29 09:53:00
5:53 AM,73.0,66.9,81,30.21,10.0,SE,9.2,-,N/A,,Mostly Cloudy,130,2013-01-29 10:53:00
6:53 AM,73.0,66.9,81,30.22,10.0,ESE,10.4,-,N/A,,Clear,120,2013-01-29 11:53:00
7:53 AM,73.9,69.1,85,30.23,10.0,SE,8.1,-,N/A,,Scattered Clouds,130,2013-01-29 12:53:00
8:53 AM,75.0,69.1,82,30.24,10.0,SE,11.5,-,N/A,,Scattered Clouds,130,2013-01-29 13:53:00
9:53 AM,77.0,69.1,76,30.24,10.0,SSE,15.0,-,N/A,,Scattered Clouds,150,2013-01-29 14:53:00
10:53 AM,75.9,69.1,79,30.24,10.0,SE,12.7,-,N/A,,Scattered Clouds,140,2013-01-29 15:53:00
11:53 AM,79.0,69.1,72,30.22,10.0,SE,15.0,20.7,N/A,,Scattered Clouds,130,2013-01-29 16:53:00
12:53 PM,77.0,68.0,74,30.20,10.0,SE,16.1,-,N/A,,Mostly Cloudy,130,2013-01-29 17:53:00
1:53 PM,77.0,68.0,74,30.17,10.0,SE,15.0,-,N/A,,Overcast,140,2013-01-29 18:53:00
2:53 PM,77.0,66.0,69,30.15,10.0,SE,16.1,21.9,N/A,,Overcast,130,2013-01-29 19:53:00
3:53 PM,77.0,66.9,71,30.14,10.0,SE,11.5,-,N/A,,Partly Cloudy,140,2013-01-29 20:53:00
4:53 PM,75.9,66.9,74,30.16,10.0,SE,15.0,-,N/A,,Partly Cloudy,130,2013-01-29 21:53:00
5:53 PM,73.9,66.9,79,30.16,10.0,SE,12.7,-,N/A,,Scattered Clouds,130,2013-01-29 22:53:00
6:53 PM,73.9,64.9,73,30.17,10.0,ESE,11.5,-,N/A,,Scattered Clouds,120,2013-01-29 23:53:00
7:53 PM,73.9,66.0,76,30.17,10.0,ESE,9.2,-,N/A,,Overcast,120,2013-01-30 00:53:00
8:53 PM,73.9,64.9,73,30.17,10.0,ESE,12.7,-,N/A,,Mostly Cloudy,120,2013-01-30 01:53:00
9:53 PM,73.0,66.0,79,30.16,10.0,ESE,12.7,-,N/A,,Clear,120,2013-01-30 02:53:00
10:53 PM,73.0,64.9,76,30.16,10.0,ESE,15.0,-,N/A,,Partly Cloudy,110,2013-01-30 03:53:00
11:53 PM,73.0,64.0,73,30.14,10.0,ESE,12.7,21.9,N/A,,Partly Cloudy,120,2013-01-30 04:53:00